createdAt,value
2018-07-10T00:02:15.957Z,18.40
2018-07-10T00:06:57.817Z,18.40
2018-07-10T00:09:46.866Z,18.30
2018-07-10T00:12:20.891Z,18.20
2018-07-10T00:17:19.357Z,18.20
2018-07-10T00:19:48.874Z,18.20
2018-07-10T00:22:18.654Z,18.20
2018-07-10T00:24:47.936Z,18.20
2018-07-10T00:27:18.194Z,18.20
2018-07-10T00:29:47.676Z,18.20
2018-07-10T00:32:17.315Z,18.20
2018-07-10T00:34:47.034Z,18.20
2018-07-10T00:37:16.594Z,18.10
2018-07-10T00:39:46.155Z,18.10
2018-07-10T00:42:15.738Z,18.10
2018-07-10T00:44:45.159Z,18.10
2018-07-10T00:47:14.816Z,17.90
2018-07-10T00:49:44.635Z,17.90
2018-07-10T00:52:24.344Z,17.90
2018-07-10T00:54:54.818Z,17.90
2018-07-10T00:57:24.381Z,17.90
2018-07-10T00:59:53.856Z,17.90
2018-07-10T01:02:24.298Z,17.90
2018-07-10T01:04:54.158Z,17.80
2018-07-10T01:07:24.237Z,17.80
2018-07-10T01:09:53.997Z,17.80
2018-07-10T01:14:52.698Z,17.70
2018-07-10T01:17:22.217Z,17.70
2018-07-10T01:19:51.753Z,17.70
2018-07-10T01:22:21.641Z,17.70
2018-07-10T01:24:55.339Z,17.60
2018-07-10T01:27:26.319Z,17.60
2018-07-10T01:29:55.805Z,17.60
2018-07-10T01:32:25.539Z,17.60
2018-07-10T01:34:55.077Z,17.50
2018-07-10T01:37:24.838Z,17.50
2018-07-10T01:39:54.877Z,17.40
2018-07-10T01:42:24.679Z,17.40
2018-07-10T01:44:54.437Z,17.40
2018-07-10T01:47:24.238Z,17.40
2018-07-10T01:49:54.018Z,17.30
2018-07-10T01:52:23.557Z,17.30
2018-07-10T01:57:28.999Z,17.40
2018-07-10T01:59:58.438Z,17.30
2018-07-10T02:02:28.198Z,17.30
2018-07-10T02:05:01.034Z,17.30
2018-07-10T02:09:59.775Z,17.30
2018-07-10T02:12:29.376Z,17.30
2018-07-10T02:14:59.175Z,17.20
2018-07-10T02:17:28.996Z,17.20
2018-07-10T02:19:58.455Z,17.20
2018-07-10T02:22:28.435Z,17.10
2018-07-10T02:24:57.834Z,17.10
2018-07-10T02:27:27.154Z,17.00
2018-07-10T02:29:57.118Z,17.00
2018-07-10T02:32:30.855Z,17.00
2018-07-10T02:35:00.597Z,17.00
2018-07-10T02:37:31.015Z,16.90
2018-07-10T02:40:01.235Z,16.90
2018-07-10T02:42:32.202Z,16.70
2018-07-10T02:45:02.418Z,16.70
2018-07-10T02:47:32.796Z,16.60
2018-07-10T02:50:02.835Z,16.60
2018-07-10T02:52:38.554Z,16.60
2018-07-10T02:55:09.376Z,16.50
2018-07-10T02:57:39.615Z,16.50
2018-07-10T03:00:11.099Z,16.50
2018-07-10T03:02:40.696Z,16.40
2018-07-10T03:07:39.917Z,16.20
2018-07-10T03:10:09.636Z,16.10
2018-07-10T03:12:41.036Z,16.10
2018-07-10T03:15:13.820Z,16.10
2018-07-10T03:17:43.396Z,16.20
2018-07-10T03:20:12.924Z,16.10
2018-07-10T03:22:42.615Z,16.10
2018-07-10T03:25:12.037Z,16.10
2018-07-10T03:27:42.336Z,16.20
2018-07-10T03:30:11.858Z,16.20
2018-07-10T03:32:41.436Z,16.20
2018-07-10T03:35:11.077Z,16.10
2018-07-10T03:37:41.436Z,16.20
2018-07-10T03:40:11.896Z,16.20
2018-07-10T03:45:12.099Z,16.20
2018-07-10T03:47:41.795Z,16.20
2018-07-10T03:50:11.376Z,16.30
2018-07-10T03:52:46.955Z,16.30
2018-07-10T03:55:17.996Z,16.30
2018-07-10T03:57:52.676Z,16.30
2018-07-10T04:00:23.424Z,16.30
2018-07-10T04:02:53.134Z,16.40
2018-07-10T04:05:25.017Z,16.40
2018-07-10T04:07:56.997Z,16.40
2018-07-10T04:10:35.116Z,16.50
2018-07-10T04:13:15.936Z,16.60
2018-07-10T04:15:47.874Z,16.60
2018-07-10T04:18:20.915Z,16.60
2018-07-10T04:20:58.758Z,16.70
2018-07-10T04:23:36.798Z,16.70
2018-07-10T04:26:17.737Z,16.80
2018-07-10T04:29:24.235Z,16.80
2018-07-10T04:31:57.596Z,16.80
2018-07-10T04:34:28.276Z,16.90
2018-07-10T04:37:09.479Z,16.90
2018-07-10T04:39:41.236Z,17.00
2018-07-10T04:44:58.197Z,17.00
2018-07-10T04:47:36.115Z,17.10
2018-07-10T04:50:15.075Z,17.10
2018-07-10T04:55:17.256Z,17.20
2018-07-10T04:58:07.154Z,17.30
2018-07-10T05:00:56.716Z,17.30
2018-07-10T05:03:27.996Z,17.40
2018-07-10T05:06:00.577Z,17.50
2018-07-10T05:08:30.154Z,17.60
2018-07-10T05:11:00.274Z,17.60
2018-07-10T05:13:30.017Z,17.60
2018-07-10T05:16:03.105Z,17.70
2018-07-10T05:18:33.755Z,17.70
2018-07-10T05:23:36.155Z,17.80
2018-07-10T05:26:06.015Z,17.80
2018-07-10T05:28:35.775Z,17.70
2018-07-10T05:33:36.380Z,17.80
2018-07-10T05:36:06.720Z,18.00
2018-07-10T05:38:41.221Z,18.10
2018-07-10T05:41:13.720Z,18.30
2018-07-10T05:43:48.836Z,18.40
2018-07-10T05:46:19.866Z,18.60
2018-07-10T05:54:32.614Z,18.90
2018-07-10T05:57:20.556Z,18.90
2018-07-10T05:59:49.656Z,18.90
2018-07-10T06:02:18.674Z,19.00
2018-07-10T06:04:48.119Z,19.10
2018-07-10T06:07:17.399Z,19.20
2018-07-10T06:09:46.707Z,19.40
2018-07-10T06:12:16.482Z,19.60
2018-07-10T06:17:14.889Z,20.20
2018-07-10T06:19:44.358Z,20.60
2018-07-10T06:22:13.865Z,21.00
2018-07-10T06:24:43.599Z,21.20
2018-07-10T06:27:12.998Z,21.30
2018-07-10T06:29:54.200Z,21.50
2018-07-10T06:32:24.921Z,21.50
2018-07-10T06:35:01.100Z,21.50
2018-07-10T06:37:33.218Z,21.50
2018-07-10T06:40:06.678Z,21.60
2018-07-10T06:42:45.139Z,21.60
2018-07-10T06:45:14.802Z,21.60
2018-07-10T06:47:49.527Z,21.60
2018-07-10T06:50:21.959Z,21.70
2018-07-10T07:00:26.712Z,21.90
2018-07-10T07:02:56.316Z,21.90
2018-07-10T07:05:30.164Z,22.00
2018-07-10T07:07:59.408Z,22.10
2018-07-10T07:12:58.623Z,22.20
2018-07-10T07:15:30.217Z,22.30
2018-07-10T07:17:59.964Z,22.30
2018-07-10T07:20:30.080Z,22.30
2018-07-10T07:23:00.002Z,22.40
2018-07-10T07:27:59.766Z,22.70
2018-07-10T07:30:29.942Z,22.80
2018-07-10T07:32:59.846Z,22.90
2018-07-10T07:35:29.511Z,23.00
2018-07-10T07:38:00.163Z,23.10
2018-07-10T07:40:29.802Z,23.20
2018-07-10T07:42:59.794Z,23.30
2018-07-10T07:47:58.743Z,23.40
2018-07-10T07:50:28.650Z,23.50
2018-07-10T07:52:58.146Z,23.60
2018-07-10T07:55:27.818Z,23.80
2018-07-10T07:57:57.577Z,24.00
2018-07-10T08:00:26.815Z,24.10
2018-07-10T08:02:56.686Z,24.30
2018-07-10T08:05:26.842Z,24.60
2018-07-10T08:07:56.522Z,24.90
2018-07-10T08:10:26.223Z,25.00
2018-07-10T08:12:56.212Z,25.10
2018-07-10T08:15:25.802Z,25.20
2018-07-10T08:17:55.882Z,25.40
2018-07-10T08:20:25.602Z,25.50
2018-07-10T08:22:55.081Z,25.60
2018-07-10T08:25:26.183Z,25.60
2018-07-10T08:27:55.682Z,25.60
2018-07-10T08:30:25.142Z,25.60
2018-07-10T08:32:55.401Z,25.80
2018-07-10T08:35:24.885Z,25.80
2018-07-10T08:37:54.284Z,26.10
2018-07-10T08:40:28.543Z,26.40
2018-07-10T08:42:58.542Z,26.50
2018-07-10T08:45:28.462Z,26.60
2018-07-10T08:48:01.322Z,26.90
2018-07-10T08:50:31.163Z,27.30
2018-07-10T08:53:00.842Z,27.40
2018-07-10T08:58:00.063Z,27.80
2018-07-10T09:00:29.558Z,28.00
2018-07-10T09:02:59.478Z,28.30
2018-07-10T09:05:29.278Z,28.50
2018-07-10T09:07:59.520Z,28.60
2018-07-10T09:10:29.519Z,28.40
2018-07-10T09:12:59.827Z,28.50
2018-07-10T09:15:32.720Z,28.10
2018-07-10T09:18:03.838Z,27.60
2018-07-10T09:20:39.807Z,27.20
2018-07-10T09:23:09.449Z,27.00
2018-07-10T09:25:39.459Z,26.70
2018-07-10T09:28:09.098Z,26.60
2018-07-10T09:30:38.638Z,26.60
2018-07-10T09:33:08.218Z,26.80
2018-07-10T09:35:37.862Z,27.00
2018-07-10T09:38:07.454Z,27.20
2018-07-10T09:40:37.258Z,27.40
2018-07-10T09:43:07.838Z,27.50
2018-07-10T09:45:38.957Z,27.60
2018-07-10T09:48:09.638Z,27.80
2018-07-10T09:50:39.899Z,28.00
2018-07-10T09:53:09.732Z,28.00
2018-07-10T09:55:39.745Z,27.60
2018-07-10T09:58:09.196Z,27.30
2018-07-10T10:00:43.881Z,27.10
2018-07-10T10:03:13.651Z,27.00
2018-07-10T10:05:45.082Z,27.20
2018-07-10T10:08:14.584Z,27.20
2018-07-10T10:10:44.243Z,27.30
2018-07-10T10:13:13.963Z,27.40
2018-07-10T10:15:44.044Z,27.50
2018-07-10T10:18:13.883Z,28.00
2018-07-10T10:20:44.101Z,28.40
2018-07-10T10:23:14.724Z,28.60
2018-07-10T10:25:49.118Z,28.70
2018-07-10T10:28:21.341Z,28.80
2018-07-10T10:30:51.181Z,28.80
2018-07-10T10:33:20.831Z,28.60
2018-07-10T10:35:50.959Z,28.40
2018-07-10T10:38:20.619Z,28.50
2018-07-10T10:43:19.503Z,28.70
2018-07-10T10:45:49.097Z,28.80
2018-07-10T10:48:19.381Z,28.80
2018-07-10T10:50:51.981Z,28.90
2018-07-10T10:53:23.183Z,28.80
2018-07-10T10:55:53.583Z,29.10
2018-07-10T10:58:23.663Z,29.30
2018-07-10T11:00:54.061Z,29.40
2018-07-10T11:03:23.681Z,29.60
2018-07-10T11:05:53.862Z,29.60
2018-07-10T11:08:25.089Z,29.40
2018-07-10T11:10:54.682Z,29.60
2018-07-10T11:13:24.961Z,29.90
2018-07-10T11:15:55.565Z,29.60
2018-07-10T11:18:31.922Z,29.10
2018-07-10T11:22:08.163Z,29.00
2018-07-10T11:25:04.666Z,29.10
2018-07-10T11:27:45.041Z,28.90
2018-07-10T11:30:14.580Z,28.80
2018-07-10T11:32:44.221Z,29.10
2018-07-10T11:35:13.681Z,29.10
2018-07-10T11:37:43.222Z,29.10
2018-07-10T11:40:14.441Z,29.00
2018-07-10T11:42:44.241Z,29.00
2018-07-10T11:47:49.025Z,28.50
2018-07-10T11:52:48.638Z,28.50
2018-07-10T11:55:18.079Z,28.50
2018-07-10T12:00:43.556Z,28.30
2018-07-10T12:03:15.935Z,28.60
2018-07-10T12:05:53.695Z,28.60
2018-07-10T12:08:26.780Z,28.80
2018-07-10T12:11:07.678Z,28.90
2018-07-10T12:13:42.455Z,28.80
2018-07-10T12:18:48.280Z,28.30
2018-07-10T12:21:20.618Z,28.50
2018-07-10T12:24:07.599Z,28.70
2018-07-10T12:26:38.037Z,28.80
2018-07-10T12:29:10.204Z,28.90
2018-07-10T12:31:39.930Z,28.90
2018-07-10T12:34:09.762Z,28.80
2018-07-10T12:36:39.982Z,28.90
2018-07-10T12:39:11.016Z,29.10
2018-07-10T12:41:40.718Z,29.10
2018-07-10T12:44:12.577Z,29.10
2018-07-10T12:46:46.122Z,29.20
2018-07-10T12:49:16.241Z,29.30
2018-07-10T12:51:46.780Z,29.60
2018-07-10T12:54:16.720Z,29.30
2018-07-10T12:56:46.922Z,29.10
2018-07-10T12:59:17.550Z,29.10
2018-07-10T13:01:48.197Z,29.00
2018-07-10T13:04:18.119Z,29.00
2018-07-10T13:06:49.037Z,29.00
2018-07-10T13:09:19.579Z,28.90
2018-07-10T13:11:49.522Z,28.70
2018-07-10T13:14:23.722Z,28.40
2018-07-10T13:16:55.768Z,28.20
2018-07-10T13:19:26.526Z,28.00
2018-07-10T13:21:56.801Z,27.90
2018-07-10T13:24:27.105Z,27.90
2018-07-10T13:26:57.680Z,27.70
2018-07-10T13:29:27.085Z,27.60
2018-07-10T13:32:09.995Z,27.50
2018-07-10T13:34:40.949Z,27.30
2018-07-10T13:37:11.690Z,27.20
2018-07-10T13:39:43.264Z,27.30
2018-07-10T13:42:13.711Z,27.30
2018-07-10T13:44:43.889Z,27.30
2018-07-10T13:47:14.277Z,27.30
2018-07-10T13:49:45.457Z,27.30
2018-07-10T13:54:48.597Z,27.20
2018-07-10T13:57:19.343Z,27.10
2018-07-10T13:59:50.357Z,27.20
2018-07-10T14:02:20.581Z,27.00
2018-07-10T14:04:51.119Z,26.90
2018-07-10T14:07:22.138Z,26.90
2018-07-10T14:09:51.963Z,27.00
2018-07-10T14:14:51.566Z,27.00
2018-07-10T14:17:21.567Z,27.10
2018-07-10T14:19:52.717Z,27.20
2018-07-10T14:22:27.955Z,27.40
2018-07-10T14:24:57.981Z,27.40
2018-07-10T14:27:28.941Z,27.40
2018-07-10T14:32:29.899Z,27.20
2018-07-10T14:35:00.699Z,27.20
2018-07-10T14:37:30.522Z,27.00
2018-07-10T14:40:02.086Z,26.80
2018-07-10T14:42:32.888Z,26.80
2018-07-10T14:45:11.943Z,26.60
2018-07-10T14:47:43.098Z,26.50
2018-07-10T14:50:18.823Z,26.60
2018-07-10T14:52:54.301Z,26.40
2018-07-10T14:55:25.098Z,26.30
2018-07-10T14:57:59.117Z,26.30
2018-07-10T15:05:29.324Z,26.50
2018-07-10T15:10:28.775Z,26.60
2018-07-10T15:12:58.364Z,26.40
2018-07-10T15:15:28.677Z,26.10
2018-07-10T15:18:03.239Z,26.10
2018-07-10T15:20:32.779Z,26.10
2018-07-10T15:23:05.820Z,26.20
2018-07-10T15:25:39.681Z,26.20
2018-07-10T15:28:13.519Z,26.30
2018-07-10T15:30:43.441Z,26.30
2018-07-10T15:33:12.902Z,26.30
2018-07-10T15:35:42.442Z,26.30
2018-07-10T15:40:41.759Z,26.10
2018-07-10T15:43:11.539Z,26.10
2018-07-10T15:45:41.819Z,26.00
2018-07-10T15:48:11.119Z,25.90
2018-07-10T15:50:41.640Z,25.90
2018-07-10T15:53:11.399Z,25.60
2018-07-10T15:55:41.741Z,25.20
2018-07-10T15:58:15.539Z,24.70
2018-07-10T16:00:45.618Z,24.20
2018-07-10T16:03:15.660Z,23.90
2018-07-10T16:05:46.440Z,23.70
2018-07-10T16:08:20.547Z,23.50
2018-07-10T16:10:53.963Z,23.30
2018-07-10T16:13:25.846Z,23.10
2018-07-10T16:15:58.121Z,22.90
2018-07-10T16:18:30.681Z,22.80
2018-07-10T16:21:04.798Z,22.70
2018-07-10T16:23:34.864Z,22.50
2018-07-10T16:26:35.201Z,22.50
2018-07-10T16:29:08.838Z,22.30
2018-07-10T16:31:40.994Z,22.30
2018-07-10T16:34:10.877Z,22.20
2018-07-10T16:36:40.300Z,22.10
2018-07-10T16:39:10.119Z,22.00
2018-07-10T16:41:44.999Z,21.90
2018-07-10T16:44:14.657Z,21.90
2018-07-10T16:46:48.998Z,21.80
2018-07-10T16:49:27.819Z,21.80
2018-07-10T16:53:08.882Z,21.70
2018-07-10T16:55:38.400Z,21.50
2018-07-10T16:58:07.836Z,21.20
2018-07-10T17:00:37.882Z,21.00
2018-07-10T17:03:08.045Z,20.80
2018-07-10T17:05:37.566Z,20.60
2018-07-10T17:08:07.505Z,20.40
2018-07-10T17:10:37.132Z,20.20
2018-07-10T17:13:16.035Z,20.20
2018-07-10T17:15:48.099Z,20.00
2018-07-10T17:18:19.861Z,19.80
2018-07-10T17:20:50.919Z,19.70
2018-07-10T17:23:23.544Z,19.60
2018-07-10T17:25:55.797Z,19.60
2018-07-10T17:28:41.703Z,19.50
2018-07-10T17:31:11.398Z,19.50
2018-07-10T17:33:43.082Z,19.30
2018-07-10T17:36:14.655Z,19.20
2018-07-10T17:38:51.485Z,19.20
2018-07-10T17:41:30.681Z,19.10
2018-07-10T17:46:36.096Z,19.00
2018-07-10T17:49:09.056Z,19.00
2018-07-10T17:51:40.184Z,19.00
2018-07-10T17:54:11.860Z,19.00
2018-07-10T17:56:45.175Z,19.00
2018-07-10T17:59:17.876Z,19.00
2018-07-10T18:01:47.428Z,19.00
2018-07-10T18:04:20.748Z,19.00
2018-07-10T18:06:52.478Z,19.10
2018-07-10T18:09:25.510Z,19.20
2018-07-10T18:12:00.578Z,19.20
2018-07-10T18:14:35.736Z,19.20
2018-07-10T18:17:08.200Z,19.20
2018-07-10T18:19:41.075Z,19.20
2018-07-10T18:22:16.205Z,19.30
2018-07-10T18:24:53.181Z,19.20
2018-07-10T18:27:51.908Z,19.10
2018-07-10T18:30:32.764Z,19.10
2018-07-10T18:33:07.562Z,19.10
2018-07-10T18:35:48.686Z,19.00
2018-07-10T18:38:20.288Z,19.00
2018-07-10T18:40:53.568Z,19.00
2018-07-10T18:43:29.955Z,18.90
2018-07-10T18:46:05.097Z,18.90
2018-07-10T18:48:36.459Z,18.80
2018-07-10T18:51:11.651Z,18.80
2018-07-10T18:53:44.645Z,18.70
2018-07-10T18:56:17.580Z,18.70
2018-07-10T18:58:59.328Z,18.60
2018-07-10T19:01:37.555Z,18.50
2018-07-10T19:04:07.389Z,18.40
2018-07-10T19:06:37.163Z,18.40
2018-07-10T19:09:06.685Z,18.30
2018-07-10T19:11:36.865Z,18.20
2018-07-10T19:14:06.948Z,18.10
2018-07-10T19:16:36.700Z,18.10
2018-07-10T19:19:07.119Z,18.00
2018-07-10T19:21:40.619Z,18.00
2018-07-10T19:24:18.584Z,17.90
2018-07-10T19:26:49.119Z,17.90
2018-07-10T19:29:55.620Z,17.80
2018-07-10T19:32:25.059Z,17.80
2018-07-10T19:34:57.622Z,17.70
2018-07-10T19:37:29.883Z,17.70
2018-07-10T19:39:59.190Z,17.60
2018-07-10T19:42:30.221Z,17.60
2018-07-10T19:45:01.243Z,17.50
2018-07-10T19:47:31.740Z,17.50
2018-07-10T19:50:19.961Z,17.50
2018-07-10T19:52:53.241Z,17.50
2018-07-10T19:55:25.002Z,17.50
2018-07-10T19:59:02.302Z,17.50
2018-07-10T20:01:55.598Z,17.50
2018-07-10T20:04:30.888Z,17.50
2018-07-10T20:07:08.300Z,17.50
2018-07-10T20:09:48.561Z,17.50
2018-07-10T20:12:21.487Z,17.50
2018-07-10T20:15:00.259Z,17.40
2018-07-10T20:17:32.273Z,17.40
2018-07-10T20:20:11.697Z,17.40
2018-07-10T20:23:54.576Z,17.40
2018-07-10T20:28:36.896Z,17.40
2018-07-10T20:31:12.837Z,17.40
2018-07-10T20:33:55.895Z,17.50
2018-07-10T20:36:26.236Z,17.50
2018-07-10T20:38:57.415Z,17.50
2018-07-10T20:41:35.956Z,17.50
2018-07-10T20:46:36.601Z,17.50
2018-07-10T20:49:06.062Z,17.60
2018-07-10T20:51:40.387Z,17.50
2018-07-10T20:54:18.738Z,17.50
2018-07-10T20:57:58.097Z,17.50
2018-07-10T21:00:29.486Z,17.50
2018-07-10T21:03:20.898Z,17.50
2018-07-10T21:05:51.741Z,17.50
2018-07-10T21:08:32.705Z,17.40
2018-07-10T21:13:11.300Z,17.40
2018-07-10T21:16:31.481Z,17.30
2018-07-10T21:19:11.389Z,17.20
2018-07-10T21:22:24.908Z,17.20
2018-07-10T21:25:09.302Z,17.20
2018-07-10T21:28:53.882Z,17.20
2018-07-10T21:33:36.621Z,17.10
2018-07-10T21:36:10.402Z,17.10
2018-07-10T21:38:53.481Z,17.10
2018-07-10T21:46:07.016Z,16.90
2018-07-10T21:50:54.626Z,16.80
2018-07-10T21:53:24.517Z,16.80
2018-07-10T21:55:54.097Z,16.70
2018-07-10T21:58:23.784Z,16.70
2018-07-10T22:02:01.396Z,16.70
2018-07-10T22:04:32.859Z,16.70
2018-07-10T22:07:04.277Z,16.60
2018-07-10T22:09:36.478Z,16.70
2018-07-10T22:12:08.756Z,16.70
2018-07-10T22:17:28.360Z,16.70
2018-07-10T22:19:59.457Z,16.60
2018-07-10T22:22:31.917Z,16.60
2018-07-10T22:27:35.803Z,16.50
2018-07-10T22:30:10.277Z,16.40
2018-07-10T22:32:45.799Z,16.40
2018-07-10T22:35:16.936Z,16.40
2018-07-10T22:37:46.956Z,16.40
2018-07-10T22:40:18.276Z,16.40
2018-07-10T22:42:47.975Z,16.30
2018-07-10T22:45:19.336Z,16.30
2018-07-10T22:47:48.918Z,16.30
2018-07-10T22:50:20.856Z,16.30
2018-07-10T22:52:56.355Z,16.30
2018-07-10T22:55:27.716Z,16.30
2018-07-10T22:58:06.536Z,16.20
2018-07-10T23:00:39.680Z,16.20
2018-07-10T23:08:16.135Z,16.10
2018-07-10T23:10:47.395Z,16.10
2018-07-10T23:13:18.036Z,16.00
2018-07-10T23:15:48.856Z,16.00
2018-07-10T23:18:18.917Z,16.00
2018-07-10T23:20:48.536Z,16.00
2018-07-10T23:23:18.877Z,16.00
2018-07-10T23:25:48.836Z,16.00
2018-07-10T23:28:19.017Z,16.00
2018-07-10T23:30:49.855Z,16.00
2018-07-10T23:33:20.215Z,16.00
2018-07-10T23:35:56.639Z,16.00
2018-07-10T23:38:36.776Z,16.00
2018-07-10T23:43:42.357Z,16.00
2018-07-10T23:46:21.335Z,15.90
2018-07-10T23:48:53.676Z,15.90
2018-07-10T23:51:23.558Z,15.90
2018-07-10T23:56:24.136Z,15.90
2018-07-10T23:58:53.414Z,15.80
